sensor_id;sensor_type;location;lat;lon;timestamp;P1;durP1;ratioP1;P2;durP2;ratioP2
43327;SDS011;28923;45.412;10.852;2023-05-07T00:01:41;2.53;;;2.33;;
43327;SDS011;28923;45.412;10.852;2023-05-07T00:04:06;2.45;;;2.15;;
43327;SDS011;28923;45.412;10.852;2023-05-07T00:06:32;2.40;;;2.20;;
43327;SDS011;28923;45.412;10.852;2023-05-07T00:08:58;2.53;;;2.33;;
43327;SDS011;28923;45.412;10.852;2023-05-07T00:11:23;2.50;;;2.30;;
43327;SDS011;28923;45.412;10.852;2023-05-07T00:13:48;2.13;;;1.95;;
43327;SDS011;28923;45.412;10.852;2023-05-07T00:16:14;2.28;;;2.05;;
43327;SDS011;28923;45.412;10.852;2023-05-07T00:18:39;2.30;;;2.05;;
43327;SDS011;28923;45.412;10.852;2023-05-07T00:21:05;2.25;;;2.05;;
43327;SDS011;28923;45.412;10.852;2023-05-07T00:23:30;2.30;;;2.10;;
43327;SDS011;28923;45.412;10.852;2023-05-07T00:25:56;2.30;;;2.10;;
43327;SDS011;28923;45.412;10.852;2023-05-07T00:28:21;2.67;;;2.30;;
43327;SDS011;28923;45.412;10.852;2023-05-07T00:30:47;2.08;;;1.98;;
43327;SDS011;28923;45.412;10.852;2023-05-07T00:33:12;2.50;;;2.20;;
43327;SDS011;28923;45.412;10.852;2023-05-07T00:35:37;2.45;;;2.25;;
43327;SDS011;28923;45.412;10.852;2023-05-07T00:38:03;2.10;;;1.90;;
43327;SDS011;28923;45.412;10.852;2023-05-07T00:40:28;2.70;;;2.42;;
43327;SDS011;28923;45.412;10.852;2023-05-07T00:42:54;2.28;;;2.10;;
43327;SDS011;28923;45.412;10.852;2023-05-07T00:45:24;2.40;;;2.20;;
43327;SDS011;28923;45.412;10.852;2023-05-07T00:47:51;2.60;;;2.30;;
43327;SDS011;28923;45.412;10.852;2023-05-07T00:50:16;2.28;;;1.77;;
43327;SDS011;28923;45.412;10.852;2023-05-07T00:52:42;2.25;;;2.03;;
43327;SDS011;28923;45.412;10.852;2023-05-07T00:55:07;2.63;;;1.98;;
43327;SDS011;28923;45.412;10.852;2023-05-07T00:57:36;2.30;;;2.10;;
43327;SDS011;28923;45.412;10.852;2023-05-07T01:00:06;3.28;;;1.98;;
43327;SDS011;28923;45.412;10.852;2023-05-07T01:02:32;2.63;;;2.00;;
43327;SDS011;28923;45.412;10.852;2023-05-07T01:04:58;2.03;;;1.92;;
43327;SDS011;28923;45.412;10.852;2023-05-07T01:07:25;2.20;;;2.00;;
43327;SDS011;28923;45.412;10.852;2023-05-07T01:09:51;2.10;;;1.90;;
43327;SDS011;28923;45.412;10.852;2023-05-07T01:12:17;1.83;;;1.73;;
43327;SDS011;28923;45.412;10.852;2023-05-07T01:14:42;2.08;;;1.88;;
43327;SDS011;28923;45.412;10.852;2023-05-07T01:17:08;2.15;;;1.95;;
43327;SDS011;28923;45.412;10.852;2023-05-07T01:19:34;2.22;;;1.90;;
43327;SDS011;28923;45.412;10.852;2023-05-07T01:22:07;2.17;;;1.98;;
43327;SDS011;28923;45.412;10.852;2023-05-07T01:24:40;2.13;;;1.92;;
43327;SDS011;28923;45.412;10.852;2023-05-07T01:27:07;2.00;;;1.77;;
43327;SDS011;28923;45.412;10.852;2023-05-07T01:29:33;2.25;;;1.77;;
43327;SDS011;28923;45.412;10.852;2023-05-07T01:32:00;2.33;;;1.98;;
43327;SDS011;28923;45.412;10.852;2023-05-07T01:34:26;2.25;;;2.13;;
43327;SDS011;28923;45.412;10.852;2023-05-07T01:36:53;1.80;;;1.70;;
43327;SDS011;28923;45.412;10.852;2023-05-07T01:39:20;2.03;;;1.90;;
43327;SDS011;28923;45.412;10.852;2023-05-07T01:41:46;2.20;;;2.00;;
43327;SDS011;28923;45.412;10.852;2023-05-07T01:44:12;1.98;;;1.88;;
43327;SDS011;28923;45.412;10.852;2023-05-07T01:46:38;2.42;;;2.22;;
43327;SDS011;28923;45.412;10.852;2023-05-07T01:49:03;2.00;;;1.80;;
43327;SDS011;28923;45.412;10.852;2023-05-07T01:51:29;3.65;;;1.95;;
43327;SDS011;28923;45.412;10.852;2023-05-07T01:53:55;1.95;;;1.85;;
43327;SDS011;28923;45.412;10.852;2023-05-07T01:56:20;2.05;;;1.95;;
43327;SDS011;28923;45.412;10.852;2023-05-07T01:58:46;2.40;;;2.20;;
43327;SDS011;28923;45.412;10.852;2023-05-07T02:01:12;2.20;;;2.00;;
43327;SDS011;28923;45.412;10.852;2023-05-07T02:03:38;2.42;;;2.22;;
43327;SDS011;28923;45.412;10.852;2023-05-07T02:06:10;2.47;;;2.22;;
43327;SDS011;28923;45.412;10.852;2023-05-07T02:08:38;2.83;;;2.33;;
43327;SDS011;28923;45.412;10.852;2023-05-07T02:11:03;2.30;;;2.10;;
43327;SDS011;28923;45.412;10.852;2023-05-07T02:13:31;2.60;;;2.30;;
43327;SDS011;28923;45.412;10.852;2023-05-07T02:15:57;2.45;;;2.30;;
43327;SDS011;28923;45.412;10.852;2023-05-07T02:18:23;2.50;;;2.30;;
43327;SDS011;28923;45.412;10.852;2023-05-07T02:20:48;2.45;;;2.25;;
43327;SDS011;28923;45.412;10.852;2023-05-07T02:23:14;2.50;;;2.30;;
43327;SDS011;28923;45.412;10.852;2023-05-07T02:25:40;2.42;;;2.22;;
43327;SDS011;28923;45.412;10.852;2023-05-07T02:28:05;2.53;;;2.33;;
43327;SDS011;28923;45.412;10.852;2023-05-07T02:30:53;2.70;;;2.40;;
43327;SDS011;28923;45.412;10.852;2023-05-07T02:33:19;2.42;;;2.22;;
43327;SDS011;28923;45.412;10.852;2023-05-07T02:35:45;2.45;;;2.25;;
43327;SDS011;28923;45.412;10.852;2023-05-07T02:38:13;2.65;;;2.40;;
43327;SDS011;28923;45.412;10.852;2023-05-07T02:40:39;2.42;;;2.22;;
43327;SDS011;28923;45.412;10.852;2023-05-07T02:43:05;2.33;;;2.13;;
43327;SDS011;28923;45.412;10.852;2023-05-07T02:45:31;2.72;;;2.40;;
43327;SDS011;28923;45.412;10.852;2023-05-07T02:47:57;2.60;;;2.40;;
43327;SDS011;28923;45.412;10.852;2023-05-07T02:50:22;2.90;;;2.70;;
43327;SDS011;28923;45.412;10.852;2023-05-07T02:52:48;2.80;;;2.60;;
43327;SDS011;28923;45.412;10.852;2023-05-07T02:55:14;2.78;;;2.58;;
43327;SDS011;28923;45.412;10.852;2023-05-07T02:57:39;2.90;;;2.55;;
43327;SDS011;28923;45.412;10.852;2023-05-07T03:00:15;2.80;;;2.60;;
43327;SDS011;28923;45.412;10.852;2023-05-07T03:05:13;2.58;;;2.38;;
43327;SDS011;28923;45.412;10.852;2023-05-07T03:07:39;2.58;;;2.38;;
43327;SDS011;28923;45.412;10.852;2023-05-07T03:10:06;2.70;;;2.50;;
43327;SDS011;28923;45.412;10.852;2023-05-07T03:12:31;2.53;;;2.35;;
43327;SDS011;28923;45.412;10.852;2023-05-07T03:14:57;2.70;;;2.50;;
43327;SDS011;28923;45.412;10.852;2023-05-07T03:17:22;2.47;;;2.28;;
43327;SDS011;28923;45.412;10.852;2023-05-07T03:19:48;2.53;;;2.33;;
43327;SDS011;28923;45.412;10.852;2023-05-07T03:22:13;2.45;;;2.25;;
43327;SDS011;28923;45.412;10.852;2023-05-07T03:24:39;3.08;;;2.78;;
43327;SDS011;28923;45.412;10.852;2023-05-07T03:27:05;2.70;;;2.50;;
43327;SDS011;28923;45.412;10.852;2023-05-07T03:29:31;3.00;;;2.70;;
43327;SDS011;28923;45.412;10.852;2023-05-07T03:31:57;2.55;;;2.35;;
43327;SDS011;28923;45.412;10.852;2023-05-07T03:34:22;2.70;;;2.50;;
43327;SDS011;28923;45.412;10.852;2023-05-07T03:36:48;2.63;;;2.42;;
43327;SDS011;28923;45.412;10.852;2023-05-07T03:39:13;2.70;;;2.50;;
43327;SDS011;28923;45.412;10.852;2023-05-07T03:41:39;2.65;;;2.45;;
43327;SDS011;28923;45.412;10.852;2023-05-07T03:44:05;2.95;;;2.75;;
43327;SDS011;28923;45.412;10.852;2023-05-07T03:46:31;2.70;;;2.50;;
43327;SDS011;28923;45.412;10.852;2023-05-07T03:48:58;2.72;;;2.53;;
43327;SDS011;28923;45.412;10.852;2023-05-07T03:51:23;2.70;;;2.50;;
43327;SDS011;28923;45.412;10.852;2023-05-07T03:53:49;2.63;;;2.42;;
43327;SDS011;28923;45.412;10.852;2023-05-07T03:56:14;2.70;;;2.50;;
43327;SDS011;28923;45.412;10.852;2023-05-07T03:58:40;2.88;;;2.60;;
43327;SDS011;28923;45.412;10.852;2023-05-07T04:01:08;3.17;;;2.88;;
43327;SDS011;28923;45.412;10.852;2023-05-07T04:03:34;3.08;;;2.75;;
43327;SDS011;28923;45.412;10.852;2023-05-07T04:06:00;2.75;;;2.55;;
43327;SDS011;28923;45.412;10.852;2023-05-07T04:08:25;3.90;;;2.50;;
43327;SDS011;28923;45.412;10.852;2023-05-07T04:10:56;3.17;;;2.45;;
43327;SDS011;28923;45.412;10.852;2023-05-07T04:13:22;2.65;;;2.45;;
43327;SDS011;28923;45.412;10.852;2023-05-07T04:15:48;3.08;;;2.88;;
43327;SDS011;28923;45.412;10.852;2023-05-07T04:18:16;2.58;;;2.38;;
43327;SDS011;28923;45.412;10.852;2023-05-07T04:20:44;3.05;;;2.65;;
43327;SDS011;28923;45.412;10.852;2023-05-07T04:23:11;2.97;;;2.78;;
43327;SDS011;28923;45.412;10.852;2023-05-07T04:25:37;2.58;;;2.38;;
43327;SDS011;28923;45.412;10.852;2023-05-07T04:28:11;3.03;;;2.80;;
43327;SDS011;28923;45.412;10.852;2023-05-07T04:30:37;2.75;;;2.55;;
43327;SDS011;28923;45.412;10.852;2023-05-07T04:33:05;2.75;;;2.55;;
43327;SDS011;28923;45.412;10.852;2023-05-07T04:35:32;2.70;;;2.50;;
43327;SDS011;28923;45.412;10.852;2023-05-07T04:37:59;2.92;;;2.70;;
43327;SDS011;28923;45.412;10.852;2023-05-07T04:40:24;3.90;;;2.65;;
43327;SDS011;28923;45.412;10.852;2023-05-07T04:42:50;2.80;;;2.60;;
43327;SDS011;28923;45.412;10.852;2023-05-07T04:45:16;3.13;;;2.83;;
43327;SDS011;28923;45.412;10.852;2023-05-07T04:47:44;3.88;;;2.80;;
43327;SDS011;28923;45.412;10.852;2023-05-07T04:50:09;2.55;;;2.35;;
43327;SDS011;28923;45.412;10.852;2023-05-07T04:52:36;2.80;;;2.60;;
43327;SDS011;28923;45.412;10.852;2023-05-07T04:55:02;2.60;;;2.40;;
43327;SDS011;28923;45.412;10.852;2023-05-07T04:57:33;2.97;;;2.78;;
43327;SDS011;28923;45.412;10.852;2023-05-07T04:59:58;2.90;;;2.60;;
43327;SDS011;28923;45.412;10.852;2023-05-07T05:02:24;3.50;;;3.20;;
43327;SDS011;28923;45.412;10.852;2023-05-07T05:04:49;2.63;;;2.42;;
43327;SDS011;28923;45.412;10.852;2023-05-07T05:07:15;2.72;;;2.53;;
43327;SDS011;28923;45.412;10.852;2023-05-07T05:09:40;2.80;;;2.50;;
43327;SDS011;28923;45.412;10.852;2023-05-07T05:12:06;3.15;;;2.85;;
43327;SDS011;28923;45.412;10.852;2023-05-07T05:14:32;2.53;;;2.33;;
43327;SDS011;28923;45.412;10.852;2023-05-07T05:16:58;2.88;;;2.63;;
43327;SDS011;28923;45.412;10.852;2023-05-07T05:19:23;3.20;;;2.95;;
43327;SDS011;28923;45.412;10.852;2023-05-07T05:21:48;2.90;;;2.70;;
43327;SDS011;28923;45.412;10.852;2023-05-07T05:24:14;3.20;;;2.90;;
43327;SDS011;28923;45.412;10.852;2023-05-07T05:26:40;4.25;;;2.50;;
43327;SDS011;28923;45.412;10.852;2023-05-07T05:29:06;2.83;;;2.60;;
43327;SDS011;28923;45.412;10.852;2023-05-07T05:31:32;3.05;;;2.85;;
43327;SDS011;28923;45.412;10.852;2023-05-07T05:33:58;4.25;;;2.83;;
43327;SDS011;28923;45.412;10.852;2023-05-07T05:36:24;5.68;;;2.88;;
43327;SDS011;28923;45.412;10.852;2023-05-07T05:41:58;16.73;;;3.65;;
43327;SDS011;28923;45.412;10.852;2023-05-07T05:44:24;7.25;;;3.03;;
43327;SDS011;28923;45.412;10.852;2023-05-07T05:46:50;13.13;;;3.10;;
43327;SDS011;28923;45.412;10.852;2023-05-07T05:49:16;7.80;;;3.33;;
43327;SDS011;28923;45.412;10.852;2023-05-07T05:51:41;5.25;;;2.95;;
43327;SDS011;28923;45.412;10.852;2023-05-07T05:54:07;5.28;;;3.20;;
43327;SDS011;28923;45.412;10.852;2023-05-07T05:56:32;6.05;;;3.30;;
43327;SDS011;28923;45.412;10.852;2023-05-07T05:58:58;5.57;;;3.08;;
43327;SDS011;28923;45.412;10.852;2023-05-07T06:01:24;5.07;;;3.05;;
43327;SDS011;28923;45.412;10.852;2023-05-07T06:03:51;9.55;;;3.58;;
43327;SDS011;28923;45.412;10.852;2023-05-07T06:06:17;6.30;;;3.00;;
43327;SDS011;28923;45.412;10.852;2023-05-07T06:08:43;5.80;;;3.15;;
43327;SDS011;28923;45.412;10.852;2023-05-07T06:11:10;6.63;;;3.22;;
43327;SDS011;28923;45.412;10.852;2023-05-07T06:13:38;4.72;;;3.33;;
43327;SDS011;28923;45.412;10.852;2023-05-07T06:16:04;5.80;;;2.90;;
43327;SDS011;28923;45.412;10.852;2023-05-07T06:18:29;4.35;;;3.30;;
43327;SDS011;28923;45.412;10.852;2023-05-07T06:20:55;8.63;;;3.78;;
43327;SDS011;28923;45.412;10.852;2023-05-07T06:23:27;9.85;;;3.67;;
43327;SDS011;28923;45.412;10.852;2023-05-07T06:25:52;8.50;;;4.30;;
43327;SDS011;28923;45.412;10.852;2023-05-07T06:28:22;10.82;;;7.28;;
43327;SDS011;28923;45.412;10.852;2023-05-07T06:30:47;8.15;;;5.10;;
43327;SDS011;28923;45.412;10.852;2023-05-07T06:33:16;13.80;;;5.63;;
43327;SDS011;28923;45.412;10.852;2023-05-07T06:35:41;8.93;;;8.10;;
43327;SDS011;28923;45.412;10.852;2023-05-07T06:38:07;11.02;;;9.93;;
43327;SDS011;28923;45.412;10.852;2023-05-07T06:40:32;11.20;;;8.40;;
43327;SDS011;28923;45.412;10.852;2023-05-07T06:42:59;11.82;;;7.60;;
43327;SDS011;28923;45.412;10.852;2023-05-07T06:45:46;10.60;;;7.93;;
43327;SDS011;28923;45.412;10.852;2023-05-07T06:48:12;8.07;;;7.28;;
43327;SDS011;28923;45.412;10.852;2023-05-07T06:50:48;8.93;;;7.38;;
43327;SDS011;28923;45.412;10.852;2023-05-07T06:53:14;12.25;;;10.10;;
43327;SDS011;28923;45.412;10.852;2023-05-07T06:55:39;12.32;;;9.63;;
43327;SDS011;28923;45.412;10.852;2023-05-07T06:58:05;11.65;;;10.18;;
43327;SDS011;28923;45.412;10.852;2023-05-07T07:00:31;12.20;;;9.10;;
43327;SDS011;28923;45.412;10.852;2023-05-07T07:02:57;12.95;;;10.95;;
43327;SDS011;28923;45.412;10.852;2023-05-07T07:05:25;12.25;;;11.00;;
43327;SDS011;28923;45.412;10.852;2023-05-07T07:07:51;17.02;;;10.40;;
43327;SDS011;28923;45.412;10.852;2023-05-07T07:10:20;12.90;;;8.98;;
43327;SDS011;28923;45.412;10.852;2023-05-07T07:12:46;13.48;;;11.10;;
43327;SDS011;28923;45.412;10.852;2023-05-07T07:15:13;13.23;;;10.20;;
43327;SDS011;28923;45.412;10.852;2023-05-07T07:17:38;12.65;;;9.57;;
43327;SDS011;28923;45.412;10.852;2023-05-07T07:20:04;14.65;;;13.18;;
43327;SDS011;28923;45.412;10.852;2023-05-07T07:22:30;14.30;;;12.77;;
43327;SDS011;28923;45.412;10.852;2023-05-07T07:24:56;19.98;;;13.75;;
43327;SDS011;28923;45.412;10.852;2023-05-07T07:27:21;24.08;;;14.55;;
43327;SDS011;28923;45.412;10.852;2023-05-07T07:29:47;19.65;;;13.68;;
43327;SDS011;28923;45.412;10.852;2023-05-07T07:32:13;22.98;;;13.98;;
43327;SDS011;28923;45.412;10.852;2023-05-07T07:34:39;32.17;;;18.17;;
43327;SDS011;28923;45.412;10.852;2023-05-07T07:37:05;32.33;;;15.82;;
43327;SDS011;28923;45.412;10.852;2023-05-07T07:39:32;26.38;;;14.75;;
43327;SDS011;28923;45.412;10.852;2023-05-07T07:41:58;26.13;;;16.23;;
43327;SDS011;28923;45.412;10.852;2023-05-07T07:44:27;24.58;;;15.93;;
43327;SDS011;28923;45.412;10.852;2023-05-07T07:46:57;27.83;;;15.60;;
43327;SDS011;28923;45.412;10.852;2023-05-07T07:49:24;22.83;;;15.80;;
43327;SDS011;28923;45.412;10.852;2023-05-07T07:51:50;21.55;;;14.63;;
43327;SDS011;28923;45.412;10.852;2023-05-07T07:54:16;29.20;;;16.02;;
43327;SDS011;28923;45.412;10.852;2023-05-07T07:56:42;32.88;;;18.58;;
43327;SDS011;28923;45.412;10.852;2023-05-07T07:59:09;45.05;;;23.33;;
43327;SDS011;28923;45.412;10.852;2023-05-07T08:01:37;49.33;;;24.77;;
43327;SDS011;28923;45.412;10.852;2023-05-07T08:04:03;47.17;;;24.10;;
43327;SDS011;28923;45.412;10.852;2023-05-07T08:06:33;56.80;;;26.15;;
43327;SDS011;28923;45.412;10.852;2023-05-07T08:08:58;52.30;;;25.52;;
43327;SDS011;28923;45.412;10.852;2023-05-07T08:11:24;51.00;;;25.52;;
43327;SDS011;28923;45.412;10.852;2023-05-07T08:13:52;53.53;;;27.25;;
43327;SDS011;28923;45.412;10.852;2023-05-07T08:16:17;50.28;;;26.60;;
43327;SDS011;28923;45.412;10.852;2023-05-07T08:18:43;51.42;;;25.58;;
43327;SDS011;28923;45.412;10.852;2023-05-07T08:21:08;48.75;;;27.75;;
43327;SDS011;28923;45.412;10.852;2023-05-07T08:23:34;50.90;;;27.05;;
43327;SDS011;28923;45.412;10.852;2023-05-07T08:26:00;57.60;;;27.55;;
43327;SDS011;28923;45.412;10.852;2023-05-07T08:28:26;52.15;;;28.27;;
43327;SDS011;28923;45.412;10.852;2023-05-07T08:30:51;53.40;;;27.42;;
43327;SDS011;28923;45.412;10.852;2023-05-07T08:33:17;51.55;;;27.42;;
43327;SDS011;28923;45.412;10.852;2023-05-07T08:35:43;56.80;;;28.77;;
43327;SDS011;28923;45.412;10.852;2023-05-07T08:38:10;50.65;;;28.58;;
43327;SDS011;28923;45.412;10.852;2023-05-07T08:40:39;51.25;;;28.08;;
43327;SDS011;28923;45.412;10.852;2023-05-07T08:43:13;56.00;;;28.42;;
43327;SDS011;28923;45.412;10.852;2023-05-07T08:45:40;49.40;;;25.85;;
43327;SDS011;28923;45.412;10.852;2023-05-07T08:48:08;43.83;;;24.45;;
43327;SDS011;28923;45.412;10.852;2023-05-07T08:50:35;40.67;;;21.98;;
43327;SDS011;28923;45.412;10.852;2023-05-07T08:53:02;34.35;;;20.80;;
43327;SDS011;28923;45.412;10.852;2023-05-07T08:55:28;36.70;;;20.80;;
43327;SDS011;28923;45.412;10.852;2023-05-07T08:57:54;37.80;;;20.42;;
43327;SDS011;28923;45.412;10.852;2023-05-07T09:00:20;28.13;;;17.15;;
43327;SDS011;28923;45.412;10.852;2023-05-07T09:02:48;26.73;;;16.30;;
43327;SDS011;28923;45.412;10.852;2023-05-07T09:05:14;27.73;;;16.50;;
43327;SDS011;28923;45.412;10.852;2023-05-07T09:07:40;26.13;;;16.05;;
43327;SDS011;28923;45.412;10.852;2023-05-07T09:10:06;26.02;;;15.85;;
43327;SDS011;28923;45.412;10.852;2023-05-07T09:12:33;24.48;;;15.40;;
43327;SDS011;28923;45.412;10.852;2023-05-07T09:15:02;28.08;;;15.10;;
43327;SDS011;28923;45.412;10.852;2023-05-07T09:17:28;24.10;;;14.05;;
43327;SDS011;28923;45.412;10.852;2023-05-07T09:19:53;18.30;;;13.50;;
43327;SDS011;28923;45.412;10.852;2023-05-07T09:22:19;15.23;;;11.85;;
43327;SDS011;28923;45.412;10.852;2023-05-07T09:25:06;14.95;;;11.55;;
43327;SDS011;28923;45.412;10.852;2023-05-07T09:27:31;17.13;;;11.60;;
43327;SDS011;28923;45.412;10.852;2023-05-07T09:29:58;14.88;;;9.98;;
43327;SDS011;28923;45.412;10.852;2023-05-07T09:32:24;14.52;;;10.77;;
43327;SDS011;28923;45.412;10.852;2023-05-07T09:34:50;14.98;;;11.48;;
43327;SDS011;28923;45.412;10.852;2023-05-07T09:37:18;16.90;;;11.05;;
43327;SDS011;28923;45.412;10.852;2023-05-07T09:39:45;19.67;;;10.88;;
43327;SDS011;28923;45.412;10.852;2023-05-07T09:42:12;16.05;;;11.13;;
43327;SDS011;28923;45.412;10.852;2023-05-07T09:44:40;15.40;;;11.02;;
43327;SDS011;28923;45.412;10.852;2023-05-07T09:47:10;16.73;;;10.93;;
43327;SDS011;28923;45.412;10.852;2023-05-07T09:49:42;15.93;;;10.90;;
43327;SDS011;28923;45.412;10.852;2023-05-07T09:52:11;14.25;;;11.15;;
43327;SDS011;28923;45.412;10.852;2023-05-07T09:54:45;14.13;;;10.75;;
43327;SDS011;28923;45.412;10.852;2023-05-07T09:57:14;15.68;;;10.73;;
43327;SDS011;28923;45.412;10.852;2023-05-07T09:59:42;15.30;;;10.95;;
43327;SDS011;28923;45.412;10.852;2023-05-07T10:02:10;13.10;;;10.85;;
43327;SDS011;28923;45.412;10.852;2023-05-07T10:04:43;14.50;;;10.75;;
43327;SDS011;28923;45.412;10.852;2023-05-07T10:07:09;13.68;;;11.07;;
43327;SDS011;28923;45.412;10.852;2023-05-07T10:09:35;12.23;;;10.27;;
43327;SDS011;28923;45.412;10.852;2023-05-07T10:12:05;14.60;;;11.10;;
43327;SDS011;28923;45.412;10.852;2023-05-07T10:14:31;14.45;;;10.55;;
43327;SDS011;28923;45.412;10.852;2023-05-07T10:16:57;15.20;;;10.38;;
43327;SDS011;28923;45.412;10.852;2023-05-07T10:19:22;14.35;;;10.48;;
43327;SDS011;28923;45.412;10.852;2023-05-07T10:21:54;14.00;;;10.32;;
43327;SDS011;28923;45.412;10.852;2023-05-07T10:24:26;11.95;;;9.70;;
43327;SDS011;28923;45.412;10.852;2023-05-07T10:26:52;12.38;;;10.60;;
43327;SDS011;28923;45.412;10.852;2023-05-07T10:32:19;12.82;;;9.30;;
43327;SDS011;28923;45.412;10.852;2023-05-07T10:34:47;11.90;;;8.70;;
43327;SDS011;28923;45.412;10.852;2023-05-07T10:37:14;10.00;;;8.00;;
43327;SDS011;28923;45.412;10.852;2023-05-07T10:39:40;8.82;;;7.93;;
43327;SDS011;28923;45.412;10.852;2023-05-07T10:42:08;11.20;;;8.57;;
43327;SDS011;28923;45.412;10.852;2023-05-07T10:44:33;11.32;;;8.73;;
43327;SDS011;28923;45.412;10.852;2023-05-07T10:47:09;11.55;;;8.50;;
43327;SDS011;28923;45.412;10.852;2023-05-07T10:49:37;10.85;;;8.15;;
43327;SDS011;28923;45.412;10.852;2023-05-07T10:52:26;10.35;;;7.95;;
43327;SDS011;28923;45.412;10.852;2023-05-07T10:57:50;9.38;;;8.18;;
43327;SDS011;28923;45.412;10.852;2023-05-07T11:05:32;8.07;;;7.15;;
43327;SDS011;28923;45.412;10.852;2023-05-07T11:08:24;8.57;;;7.22;;
43327;SDS011;28923;45.412;10.852;2023-05-07T11:10:56;10.10;;;7.00;;
43327;SDS011;28923;45.412;10.852;2023-05-07T11:13:48;7.93;;;6.82;;
43327;SDS011;28923;45.412;10.852;2023-05-07T11:16:37;10.60;;;6.50;;
43327;SDS011;28923;45.412;10.852;2023-05-07T11:19:15;10.38;;;6.88;;
43327;SDS011;28923;45.412;10.852;2023-05-07T11:21:45;9.18;;;6.43;;
43327;SDS011;28923;45.412;10.852;2023-05-07T11:24:27;8.02;;;6.20;;
43327;SDS011;28923;45.412;10.852;2023-05-07T11:26:59;9.73;;;6.65;;
43327;SDS011;28923;45.412;10.852;2023-05-07T11:29:26;12.27;;;6.85;;
43327;SDS011;28923;45.412;10.852;2023-05-07T11:32:02;12.52;;;6.68;;
43327;SDS011;28923;45.412;10.852;2023-05-07T11:34:32;8.48;;;6.53;;
43327;SDS011;28923;45.412;10.852;2023-05-07T11:36:58;10.38;;;6.78;;
43327;SDS011;28923;45.412;10.852;2023-05-07T11:39:38;8.95;;;6.47;;
43327;SDS011;28923;45.412;10.852;2023-05-07T11:42:03;8.38;;;6.47;;
43327;SDS011;28923;45.412;10.852;2023-05-07T11:44:44;8.55;;;6.68;;
43327;SDS011;28923;45.412;10.852;2023-05-07T11:47:11;9.05;;;6.88;;
43327;SDS011;28923;45.412;10.852;2023-05-07T11:49:36;10.43;;;7.45;;
43327;SDS011;28923;45.412;10.852;2023-05-07T11:52:02;11.80;;;6.80;;
43327;SDS011;28923;45.412;10.852;2023-05-07T11:54:34;8.65;;;6.20;;
43327;SDS011;28923;45.412;10.852;2023-05-07T11:57:00;7.20;;;6.22;;
43327;SDS011;28923;45.412;10.852;2023-05-07T11:59:26;11.10;;;6.90;;
43327;SDS011;28923;45.412;10.852;2023-05-07T12:01:51;9.20;;;6.22;;
43327;SDS011;28923;45.412;10.852;2023-05-07T12:04:19;9.95;;;6.78;;
43327;SDS011;28923;45.412;10.852;2023-05-07T12:06:45;9.95;;;6.20;;
43327;SDS011;28923;45.412;10.852;2023-05-07T12:09:10;6.85;;;6.05;;
43327;SDS011;28923;45.412;10.852;2023-05-07T12:11:36;9.98;;;6.10;;
43327;SDS011;28923;45.412;10.852;2023-05-07T12:14:05;7.10;;;6.40;;
43327;SDS011;28923;45.412;10.852;2023-05-07T12:16:30;7.45;;;5.80;;
43327;SDS011;28923;45.412;10.852;2023-05-07T12:18:56;7.95;;;6.13;;
43327;SDS011;28923;45.412;10.852;2023-05-07T12:21:24;6.55;;;5.85;;
43327;SDS011;28923;45.412;10.852;2023-05-07T12:23:50;8.50;;;5.80;;
43327;SDS011;28923;45.412;10.852;2023-05-07T12:26:15;6.90;;;5.55;;
43327;SDS011;28923;45.412;10.852;2023-05-07T12:28:42;8.70;;;5.88;;
43327;SDS011;28923;45.412;10.852;2023-05-07T12:31:07;5.70;;;5.13;;
43327;SDS011;28923;45.412;10.852;2023-05-07T12:33:33;6.95;;;5.15;;
43327;SDS011;28923;45.412;10.852;2023-05-07T12:36:02;7.45;;;5.25;;
43327;SDS011;28923;45.412;10.852;2023-05-07T12:38:32;6.95;;;5.32;;
43327;SDS011;28923;45.412;10.852;2023-05-07T12:40:59;6.22;;;5.57;;
43327;SDS011;28923;45.412;10.852;2023-05-07T12:43:25;5.75;;;5.15;;
43327;SDS011;28923;45.412;10.852;2023-05-07T12:45:51;6.13;;;5.07;;
43327;SDS011;28923;45.412;10.852;2023-05-07T12:48:17;7.20;;;5.85;;
43327;SDS011;28923;45.412;10.852;2023-05-07T12:50:42;5.97;;;5.20;;
43327;SDS011;28923;45.412;10.852;2023-05-07T12:53:10;6.32;;;5.43;;
43327;SDS011;28923;45.412;10.852;2023-05-07T12:55:46;6.75;;;5.00;;
43327;SDS011;28923;45.412;10.852;2023-05-07T12:58:16;6.53;;;5.25;;
43327;SDS011;28923;45.412;10.852;2023-05-07T13:00:41;6.07;;;5.18;;
43327;SDS011;28923;45.412;10.852;2023-05-07T13:03:08;5.32;;;4.68;;
43327;SDS011;28923;45.412;10.852;2023-05-07T13:05:34;5.50;;;5.00;;
43327;SDS011;28923;45.412;10.852;2023-05-07T13:08:00;6.15;;;5.43;;
43327;SDS011;28923;45.412;10.852;2023-05-07T13:10:25;16.48;;;6.13;;
43327;SDS011;28923;45.412;10.852;2023-05-07T13:12:51;6.90;;;5.55;;
43327;SDS011;28923;45.412;10.852;2023-05-07T13:15:17;6.78;;;5.30;;
43327;SDS011;28923;45.412;10.852;2023-05-07T13:17:42;10.07;;;5.07;;
43327;SDS011;28923;45.412;10.852;2023-05-07T13:20:11;6.05;;;5.18;;
43327;SDS011;28923;45.412;10.852;2023-05-07T13:22:38;6.25;;;5.10;;
43327;SDS011;28923;45.412;10.852;2023-05-07T13:25:03;7.38;;;4.80;;
43327;SDS011;28923;45.412;10.852;2023-05-07T13:27:28;5.10;;;4.50;;
43327;SDS011;28923;45.412;10.852;2023-05-07T13:29:56;5.68;;;4.63;;
43327;SDS011;28923;45.412;10.852;2023-05-07T13:32:21;6.53;;;4.97;;
43327;SDS011;28923;45.412;10.852;2023-05-07T13:34:46;5.00;;;4.50;;
43327;SDS011;28923;45.412;10.852;2023-05-07T13:37:12;6.25;;;5.00;;
43327;SDS011;28923;45.412;10.852;2023-05-07T13:39:37;5.50;;;4.70;;
43327;SDS011;28923;45.412;10.852;2023-05-07T13:42:02;5.72;;;5.22;;
43327;SDS011;28923;45.412;10.852;2023-05-07T13:44:28;4.97;;;4.45;;
43327;SDS011;28923;45.412;10.852;2023-05-07T13:46:53;8.93;;;5.05;;
43327;SDS011;28923;45.412;10.852;2023-05-07T13:49:18;7.07;;;4.75;;
43327;SDS011;28923;45.412;10.852;2023-05-07T13:51:44;5.75;;;4.90;;
43327;SDS011;28923;45.412;10.852;2023-05-07T13:54:10;5.65;;;5.10;;
43327;SDS011;28923;45.412;10.852;2023-05-07T13:56:36;5.72;;;4.90;;
43327;SDS011;28923;45.412;10.852;2023-05-07T13:59:01;5.50;;;4.60;;
43327;SDS011;28923;45.412;10.852;2023-05-07T14:01:27;4.97;;;4.47;;
43327;SDS011;28923;45.412;10.852;2023-05-07T14:03:52;6.40;;;5.25;;
43327;SDS011;28923;45.412;10.852;2023-05-07T14:06:17;4.80;;;4.28;;
43327;SDS011;28923;45.412;10.852;2023-05-07T14:08:43;5.03;;;4.10;;
43327;SDS011;28923;45.412;10.852;2023-05-07T14:11:08;4.82;;;4.28;;
43327;SDS011;28923;45.412;10.852;2023-05-07T14:13:34;7.53;;;4.78;;
43327;SDS011;28923;45.412;10.852;2023-05-07T14:15:59;4.93;;;4.43;;
43327;SDS011;28923;45.412;10.852;2023-05-07T14:18:25;6.15;;;4.18;;
43327;SDS011;28923;45.412;10.852;2023-05-07T14:20:51;5.05;;;4.05;;
43327;SDS011;28923;45.412;10.852;2023-05-07T14:23:16;4.20;;;3.80;;
43327;SDS011;28923;45.412;10.852;2023-05-07T14:25:44;5.25;;;4.20;;
43327;SDS011;28923;45.412;10.852;2023-05-07T14:28:11;4.38;;;3.97;;
43327;SDS011;28923;45.412;10.852;2023-05-07T14:30:36;4.68;;;4.28;;
43327;SDS011;28923;45.412;10.852;2023-05-07T14:33:01;5.13;;;4.15;;
43327;SDS011;28923;45.412;10.852;2023-05-07T14:35:27;6.90;;;4.63;;
43327;SDS011;28923;45.412;10.852;2023-05-07T14:37:52;6.40;;;4.97;;
43327;SDS011;28923;45.412;10.852;2023-05-07T14:40:17;4.93;;;4.43;;
43327;SDS011;28923;45.412;10.852;2023-05-07T14:42:43;5.10;;;4.60;;
43327;SDS011;28923;45.412;10.852;2023-05-07T14:45:08;4.68;;;4.28;;